Time;durP1;ratioP1;P1;durP2;ratioP2;P2;SDS_P1;SDS_P2;PMS_P1;PMS_P2;Temp;Humidity;BMP_temperature;BMP_pressure;BME280_temperature;BME280_humidity;BME280_pressure;Samples;Min_cycle;Max_cycle;Signal;HPM_P1;HPM_P2
2022/01/15 00:00:27;;;;;;;20.50;6.33;;;4.10;40.00;;;;;;6296299;28;20317;-57
2022/01/15 00:03:30;;;;;;;23.77;7.67;;;3.80;39.70;;;;;;6290877;28;20240;-56
2022/01/15 00:06:33;;;;;;;17.17;7.07;;;4.10;39.60;;;;;;6291588;28;20766;-57
2022/01/15 00:09:38;;;;;;;16.00;6.87;;;3.90;39.30;;;;;;6302372;28;20326;-56
2022/01/15 00:12:42;;;;;;;25.40;6.77;;;4.10;39.80;;;;;;6306860;28;20323;-56
2022/01/15 00:15:50;;;;;;;21.80;7.30;;;4.20;39.90;;;;;;6299922;28;20252;-56
2022/01/15 00:19:04;;;;;;;25.63;6.83;;;4.10;39.40;;;;;;6304195;28;20305;-56
2022/01/15 00:22:11;;;;;;;17.60;6.67;;;3.90;39.10;;;;;;6301197;28;20392;-57
2022/01/15 00:25:14;;;;;;;18.53;6.67;;;3.90;39.90;;;;;;6307976;28;20762;-56
2022/01/15 00:28:18;;;;;;;17.17;7.47;;;4.00;40.00;;;;;;6303831;28;20241;-57
2022/01/15 00:31:21;;;;;;;25.70;7.00;;;3.70;40.50;;;;;;6290264;28;20786;-56
2022/01/15 00:34:24;;;;;;;27.13;8.93;;;3.50;40.60;;;;;;6297356;28;20239;-57
2022/01/15 00:37:30;;;;;;;17.67;7.43;;;3.90;41.40;;;;;;6290395;28;20237;-56
2022/01/15 00:40:33;;;;;;;21.93;7.57;;;3.50;41.10;;;;;;6294295;28;20316;-58
2022/01/15 00:43:37;;;;;;;22.50;7.90;;;3.70;41.40;;;;;;6301016;28;20232;-56
2022/01/15 00:46:40;;;;;;;16.13;6.27;;;3.50;41.90;;;;;;6306207;28;20233;-55
2022/01/15 00:49:43;;;;;;;20.57;7.47;;;3.40;42.50;;;;;;6296919;28;20715;-56
2022/01/15 00:52:46;;;;;;;27.00;6.83;;;3.40;42.20;;;;;;6302879;28;20236;-55
2022/01/15 00:55:49;;;;;;;24.43;7.63;;;3.60;42.50;;;;;;6301754;28;20294;-57
2022/01/15 00:58:53;;;;;;;23.93;8.33;;;3.50;42.50;;;;;;6306409;28;20258;-56
2022/01/15 01:01:56;;;;;;;21.13;8.07;;;3.70;42.80;;;;;;6292940;28;20328;-56
2022/01/15 01:04:59;;;;;;;16.20;7.67;;;3.50;42.70;;;;;;6302403;28;20239;-57
2022/01/15 01:08:02;;;;;;;18.90;7.00;;;3.50;43.20;;;;;;6293830;28;20332;-57
2022/01/15 01:11:11;;;;;;;17.67;6.70;;;3.50;43.30;;;;;;6304578;28;20335;-57
2022/01/15 01:21:16;;;;;;;23.97;7.57;;;3.40;43.70;;;;;;6307118;28;20371;-56
2022/01/15 01:24:20;;;;;;;21.80;7.17;;;3.40;43.80;;;;;;6297104;28;20307;-56
2022/01/15 01:27:27;;;;;;;10.90;6.50;;;3.50;44.30;;;;;;6290085;28;20274;-55
2022/01/15 01:30:36;;;;;;;18.37;6.50;;;3.40;45.20;;;;;;6293176;28;20316;-56
2022/01/15 01:33:44;;;;;;;17.00;7.00;;;3.30;44.80;;;;;;6297212;28;20301;-55
2022/01/15 01:36:56;;;;;;;21.00;6.50;;;3.30;45.20;;;;;;6312423;28;20319;-57
2022/01/15 01:40:15;;;;;;;14.07;6.37;;;3.20;45.50;;;;;;6296000;28;20236;-56
2022/01/15 01:46:48;;;;;;;15.27;6.70;;;3.50;45.10;;;;;;6297043;28;20241;-56
2022/01/15 01:49:51;;;;;;;25.90;7.50;;;3.10;45.20;;;;;;6310738;28;20237;-58
2022/01/15 01:52:56;;;;;;;23.37;7.50;;;3.30;46.10;;;;;;6290724;28;20252;-57
2022/01/15 01:55:59;;;;;;;23.73;7.13;;;3.00;46.10;;;;;;6287507;28;20256;-56
2022/01/15 01:59:03;;;;;;;17.00;6.87;;;3.30;46.60;;;;;;6296813;28;20875;-56
2022/01/15 02:02:07;;;;;;;17.37;6.83;;;3.10;47.40;;;;;;6288440;28;20647;-56
2022/01/15 02:05:11;;;;;;;21.30;7.17;;;3.40;47.70;;;;;;6298268;28;20229;-55
2022/01/15 02:08:16;;;;;;;17.23;6.83;;;3.10;48.30;;;;;;6316881;28;20237;-57
2022/01/15 02:11:18;;;;;;;29.63;7.23;;;3.20;47.90;;;;;;6297797;28;20607;-56
2022/01/15 02:14:25;;;;;;;25.03;7.30;;;3.20;48.50;;;;;;6303878;28;20301;-56
2022/01/15 02:17:29;;;;;;;30.83;7.30;;;3.50;50.30;;;;;;6297786;28;20327;-57
2022/01/15 02:21:01;;;;;;;24.20;7.47;;;3.10;48.80;;;;;;6308174;28;20318;-56
2022/01/15 02:24:02;;;;;;;22.27;7.20;;;3.40;49.50;;;;;;6291052;28;20317;-56
2022/01/15 02:27:05;;;;;;;14.73;6.40;;;3.40;50.20;;;;;;6298341;28;20250;-56
2022/01/15 02:30:09;;;;;;;21.50;7.07;;;3.20;49.30;;;;;;6310523;28;20313;-56
2022/01/15 02:33:12;;;;;;;26.63;7.90;;;3.40;50.70;;;;;;6299015;28;20255;-56
2022/01/15 02:36:18;;;;;;;20.97;7.03;;;3.20;50.70;;;;;;6295051;28;20311;-55
2022/01/15 02:39:20;;;;;;;18.47;6.57;;;3.20;50.60;;;;;;6291072;28;20593;-55
2022/01/15 02:42:24;;;;;;;26.97;6.93;;;3.30;51.10;;;;;;6288947;28;20390;-57
2022/01/15 02:45:27;;;;;;;24.07;6.33;;;3.00;51.40;;;;;;6311678;28;20232;-57
2022/01/15 02:48:30;;;;;;;19.40;6.63;;;3.20;51.30;;;;;;6309872;28;20256;-57
2022/01/15 02:51:35;;;;;;;22.23;7.37;;;3.10;51.50;;;;;;6305339;28;20360;-57
2022/01/15 02:54:38;;;;;;;22.63;7.23;;;3.00;51.60;;;;;;6294539;28;20233;-55
2022/01/15 02:57:41;;;;;;;22.47;7.90;;;2.60;51.70;;;;;;6298689;28;20237;-55
2022/01/15 03:00:45;;;;;;;24.13;6.67;;;3.30;52.30;;;;;;6286257;28;20327;-56
2022/01/15 03:03:47;;;;;;;28.27;6.70;;;3.30;52.50;;;;;;6295518;28;20735;-56
2022/01/15 03:06:51;;;;;;;20.90;6.73;;;3.10;52.80;;;;;;6298082;28;20718;-54
2022/01/15 03:09:54;;;;;;;28.23;6.60;;;3.20;52.50;;;;;;6303816;28;20293;-55
2022/01/15 03:12:58;;;;;;;18.33;7.43;;;3.30;53.00;;;;;;6300657;28;20244;-55
2022/01/15 03:16:01;;;;;;;15.30;6.50;;;3.40;53.50;;;;;;6287952;28;20659;-59
2022/01/15 03:19:04;;;;;;;26.97;7.10;;;3.10;53.20;;;;;;6306108;28;20259;-56
2022/01/15 03:22:08;;;;;;;21.37;6.53;;;3.20;53.90;;;;;;6308423;28;20244;-56
2022/01/15 03:25:12;;;;;;;15.50;6.17;;;3.00;53.50;;;;;;6302997;28;20378;-56
2022/01/15 03:28:15;;;;;;;22.10;7.03;;;2.90;53.40;;;;;;6284307;28;20324;-56
2022/01/15 03:31:17;;;;;;;25.17;6.33;;;3.00;53.40;;;;;;6283987;28;20251;-56
2022/01/15 03:34:20;;;;;;;17.63;7.10;;;2.80;53.50;;;;;;6291384;28;20347;-56
2022/01/15 03:37:25;;;;;;;19.73;6.40;;;3.20;53.70;;;;;;6290801;28;20717;-56
2022/01/15 03:40:27;;;;;;;12.63;6.47;;;2.80;53.70;;;;;;6298077;28;20429;-56
2022/01/15 03:43:30;;;;;;;22.57;7.27;;;2.70;53.60;;;;;;6296542;28;20626;-57
2022/01/15 03:46:34;;;;;;;28.67;7.33;;;2.80;53.90;;;;;;6291225;28;20760;-57
2022/01/15 03:49:37;;;;;;;23.17;7.93;;;3.00;54.20;;;;;;6306378;28;20759;-57
2022/01/15 03:52:41;;;;;;;31.03;8.50;;;2.90;54.60;;;;;;6302906;28;20524;-57
2022/01/15 03:55:44;;;;;;;27.43;8.33;;;3.00;54.40;;;;;;6303343;28;20240;-56
2022/01/15 03:58:47;;;;;;;28.93;8.23;;;2.80;54.50;;;;;;6296864;28;20353;-56
2022/01/15 04:01:50;;;;;;;24.07;7.97;;;2.90;54.70;;;;;;6293459;28;20408;-56
2022/01/15 04:04:54;;;;;;;19.10;7.47;;;2.80;54.30;;;;;;6303886;28;20244;-56
2022/01/15 04:07:58;;;;;;;21.40;6.80;;;2.70;54.30;;;;;;6291190;28;20314;-55
2022/01/15 04:11:01;;;;;;;25.00;7.20;;;3.00;54.50;;;;;;6299562;28;20839;-55
2022/01/15 04:14:05;;;;;;;23.47;8.17;;;3.00;54.50;;;;;;6303028;28;20257;-54
2022/01/15 04:17:08;;;;;;;27.47;7.43;;;2.80;54.80;;;;;;6298356;28;20678;-57
2022/01/15 04:20:12;;;;;;;21.27;7.00;;;2.60;54.30;;;;;;6299649;28;20285;-57
2022/01/15 04:23:16;;;;;;;24.70;7.17;;;2.50;54.10;;;;;;6306031;28;20868;-56
2022/01/15 04:26:23;;;;;;;22.33;7.10;;;2.80;54.60;;;;;;6303113;28;20798;-56
2022/01/15 04:29:26;;;;;;;19.47;7.63;;;2.80;54.60;;;;;;6290048;28;20669;-55
2022/01/15 04:32:29;;;;;;;26.90;7.83;;;2.40;54.20;;;;;;6278497;28;20386;-57
2022/01/15 04:35:32;;;;;;;23.67;8.57;;;2.30;54.40;;;;;;6294355;28;20366;-56
2022/01/15 04:38:38;;;;;;;29.27;8.07;;;2.50;54.50;;;;;;6290535;28;20238;-56
2022/01/15 04:41:41;;;;;;;27.80;7.77;;;2.60;54.80;;;;;;6294399;28;20390;-55
2022/01/15 04:44:43;;;;;;;26.80;8.10;;;2.40;54.60;;;;;;6306740;28;20232;-56
2022/01/15 04:47:46;;;;;;;28.47;7.80;;;2.70;55.00;;;;;;6290396;28;20236;-56
2022/01/15 04:50:49;;;;;;;31.23;7.20;;;2.40;55.20;;;;;;6297064;28;20374;-57
2022/01/15 04:53:53;;;;;;;28.97;8.50;;;2.70;55.20;;;;;;6297127;28;20261;-57
2022/01/15 04:56:56;;;;;;;28.40;7.83;;;2.70;55.10;;;;;;6296201;28;20523;-57
2022/01/15 04:59:59;;;;;;;29.70;7.93;;;2.60;55.20;;;;;;6303367;28;20949;-56
2022/01/15 05:03:02;;;;;;;26.73;7.93;;;2.40;55.40;;;;;;6299996;28;20233;-56
2022/01/15 05:06:05;;;;;;;17.33;7.23;;;2.50;55.80;;;;;;6287957;28;20768;-56
2022/01/15 05:09:09;;;;;;;18.03;8.47;;;2.70;55.70;;;;;;6292263;28;20259;-56
2022/01/15 05:12:24;;;;;;;23.17;8.77;;;2.50;55.80;;;;;;6298536;28;20305;-55
2022/01/15 05:15:27;;;;;;;34.53;10.40;;;2.60;55.90;;;;;;6289129;28;20901;-55
2022/01/15 05:18:30;;;;;;;32.40;10.30;;;2.80;56.00;;;;;;6299461;28;20294;-57
2022/01/15 05:21:33;;;;;;;27.63;10.00;;;2.40;55.90;;;;;;6293202;28;20815;-55
2022/01/15 05:24:37;;;;;;;33.73;10.77;;;2.60;55.70;;;;;;6288789;28;20352;-56
2022/01/15 05:27:41;;;;;;;33.17;11.00;;;2.80;56.10;;;;;;6295788;28;20282;-57
2022/01/15 05:30:44;;;;;;;30.80;11.37;;;2.90;55.90;;;;;;6304500;28;20240;-56
2022/01/15 05:33:47;;;;;;;30.97;11.97;;;2.60;55.40;;;;;;6294638;28;20410;-56
2022/01/15 05:36:49;;;;;;;26.80;10.67;;;2.80;54.80;;;;;;6297192;28;20600;-57
2022/01/15 05:39:53;;;;;;;31.07;11.70;;;2.80;55.00;;;;;;6292670;28;20241;-56
2022/01/15 05:42:56;;;;;;;30.93;12.17;;;2.70;55.10;;;;;;6286436;28;20579;-56
2022/01/15 05:45:59;;;;;;;34.67;12.13;;;2.60;54.90;;;;;;6290827;28;20613;-56
2022/01/15 05:49:03;;;;;;;40.83;12.53;;;2.60;55.50;;;;;;6295389;28;20236;-56
2022/01/15 05:52:06;;;;;;;38.73;14.43;;;2.40;55.70;;;;;;6290898;28;20366;-55
2022/01/15 05:55:11;;;;;;;28.33;11.33;;;2.40;55.80;;;;;;6297053;28;20323;-56
2022/01/15 05:58:14;;;;;;;28.53;11.33;;;2.50;56.20;;;;;;6289538;28;20356;-56
2022/01/15 06:01:17;;;;;;;39.67;11.97;;;2.30;56.10;;;;;;6298071;28;20382;-56
2022/01/15 06:04:20;;;;;;;37.77;11.63;;;2.20;55.80;;;;;;6299799;28;20236;-56
2022/01/15 06:07:23;;;;;;;27.20;11.43;;;2.20;56.00;;;;;;6303313;28;20284;-55
2022/01/15 06:10:27;;;;;;;29.47;11.03;;;2.50;56.30;;;;;;6302398;28;20512;-56
2022/01/15 06:13:29;;;;;;;25.23;10.77;;;2.20;56.00;;;;;;6289940;28;21663;-56
2022/01/15 06:16:32;;;;;;;34.20;11.33;;;2.30;55.90;;;;;;6302612;28;20261;-57
2022/01/15 06:19:35;;;;;;;27.60;10.33;;;2.30;55.90;;;;;;6301386;28;20688;-56
2022/01/15 06:22:38;;;;;;;31.20;10.17;;;2.40;55.50;;;;;;6302294;28;20668;-56
2022/01/15 06:25:42;;;;;;;27.33;10.57;;;2.30;55.30;;;;;;6298028;28;20295;-56
2022/01/15 06:28:45;;;;;;;32.37;9.87;;;2.40;55.20;;;;;;6292744;28;20484;-56
2022/01/15 06:31:47;;;;;;;33.73;10.80;;;2.20;55.30;;;;;;6297137;28;20247;-55
2022/01/15 06:34:50;;;;;;;29.37;11.50;;;2.40;55.70;;;;;;6298744;28;20298;-57
2022/01/15 06:37:54;;;;;;;38.30;12.10;;;2.10;55.40;;;;;;6305052;28;20316;-55
2022/01/15 06:40:58;;;;;;;30.70;12.67;;;2.30;55.30;;;;;;6290933;28;20334;-56
2022/01/15 06:44:01;;;;;;;33.23;13.17;;;2.00;55.90;;;;;;6295137;28;20752;-57
2022/01/15 06:47:04;;;;;;;36.13;13.83;;;2.10;55.70;;;;;;6296609;28;20595;-56
2022/01/15 06:50:09;;;;;;;36.37;14.07;;;2.00;55.80;;;;;;6295587;28;20608;-56
2022/01/15 06:53:12;;;;;;;37.47;14.37;;;2.20;56.20;;;;;;6293565;28;20241;-57
2022/01/15 06:56:16;;;;;;;39.20;14.47;;;1.90;55.90;;;;;;6294190;28;20228;-58
2022/01/15 06:59:19;;;;;;;37.47;16.23;;;2.00;55.90;;;;;;6296397;28;20240;-57
2022/01/15 07:02:21;;;;;;;44.90;17.13;;;2.00;56.00;;;;;;6301031;28;20310;-57
2022/01/15 07:05:24;;;;;;;35.27;15.57;;;1.90;55.80;;;;;;6290869;28;20263;-56
2022/01/15 07:08:27;;;;;;;40.80;15.70;;;2.10;56.00;;;;;;6300018;28;20305;-56
2022/01/15 07:11:31;;;;;;;44.80;16.43;;;2.20;56.10;;;;;;6298631;28;20330;-56
2022/01/15 07:14:34;;;;;;;43.63;16.77;;;2.00;55.90;;;;;;6299652;28;20363;-56
2022/01/15 07:17:41;;;;;;;38.90;15.70;;;2.10;55.90;;;;;;6303763;28;20256;-56
2022/01/15 07:20:45;;;;;;;46.23;16.77;;;2.00;56.10;;;;;;6304899;28;20278;-56
2022/01/15 07:23:47;;;;;;;34.00;15.30;;;2.10;56.30;;;;;;6305321;28;20740;-55
2022/01/15 07:26:52;;;;;;;40.83;16.53;;;2.20;56.10;;;;;;6308260;28;20290;-56
2022/01/15 07:29:55;;;;;;;40.03;14.80;;;2.30;56.20;;;;;;6296399;28;20831;-57
2022/01/15 07:32:57;;;;;;;35.57;14.53;;;2.00;55.80;;;;;;6306707;28;20394;-56
2022/01/15 07:36:00;;;;;;;37.23;14.50;;;2.10;55.50;;;;;;6297498;28;20260;-56
2022/01/15 07:39:05;;;;;;;36.13;13.40;;;2.10;55.40;;;;;;6299704;28;20790;-57
2022/01/15 07:42:10;;;;;;;36.07;14.00;;;2.30;55.10;;;;;;6292759;28;20721;-55
2022/01/15 07:45:15;;;;;;;32.93;13.57;;;2.10;54.90;;;;;;6303365;28;20295;-56
2022/01/15 07:48:21;;;;;;;35.47;13.53;;;2.20;55.20;;;;;;6299230;28;20253;-57
2022/01/15 07:51:27;;;;;;;33.83;13.30;;;2.30;54.50;;;;;;6298718;28;20832;-57
2022/01/15 07:54:30;;;;;;;41.73;12.73;;;2.20;55.20;;;;;;6296703;28;20241;-56
2022/01/15 07:57:34;;;;;;;30.53;12.23;;;2.30;54.10;;;;;;6299675;28;20232;-57
2022/01/15 08:00:37;;;;;;;32.13;14.40;;;2.30;54.20;;;;;;6299912;28;20217;-56
2022/01/15 08:03:40;;;;;;;25.87;13.23;;;2.30;54.00;;;;;;6298613;28;20599;-55
2022/01/15 08:06:43;;;;;;;34.93;14.63;;;2.10;53.30;;;;;;6293354;28;20308;-55
2022/01/15 08:09:46;;;;;;;33.20;13.23;;;2.30;52.90;;;;;;6303115;28;20325;-58
2022/01/15 08:12:51;;;;;;;38.17;12.70;;;2.20;52.80;;;;;;6297637;28;20589;-56
2022/01/15 08:15:54;;;;;;;28.30;11.80;;;2.40;51.80;;;;;;6299339;28;20746;-55
2022/01/15 08:18:56;;;;;;;31.73;12.97;;;2.20;52.50;;;;;;6300051;28;20791;-56
2022/01/15 08:21:59;;;;;;;23.47;12.27;;;2.10;52.40;;;;;;6299713;28;20294;-57
2022/01/15 08:25:02;;;;;;;35.77;14.77;;;2.30;52.50;;;;;;6291109;28;20229;-56
2022/01/15 08:28:06;;;;;;;33.60;15.00;;;2.10;51.70;;;;;;6287798;28;20698;-56
2022/01/15 08:31:09;;;;;;;24.43;14.53;;;2.20;50.70;;;;;;6291491;28;20243;-57
2022/01/15 08:34:11;;;;;;;26.50;14.17;;;2.10;52.00;;;;;;6291135;28;20627;-58
2022/01/15 08:37:14;;;;;;;35.17;13.43;;;2.20;52.20;;;;;;6291759;28;20232;-55
2022/01/15 08:40:20;;;;;;;25.40;13.07;;;2.10;50.50;;;;;;6298856;28;20317;-56
2022/01/15 08:43:24;;;;;;;27.43;11.17;;;2.20;50.50;;;;;;6298679;28;20342;-57
2022/01/15 08:46:27;;;;;;;27.53;13.27;;;2.40;50.80;;;;;;6296306;28;20229;-56
2022/01/15 08:49:30;;;;;;;26.03;12.43;;;2.20;51.10;;;;;;6295690;28;20236;-57
2022/01/15 08:52:33;;;;;;;33.60;13.17;;;2.20;51.40;;;;;;6293108;28;20403;-57
2022/01/15 08:55:36;;;;;;;32.07;12.60;;;2.20;50.70;;;;;;6297058;28;20542;-57
2022/01/15 08:58:40;;;;;;;25.03;13.27;;;2.10;51.70;;;;;;6293782;28;20604;-57
2022/01/15 09:01:42;;;;;;;33.07;14.90;;;2.30;52.20;;;;;;6295289;28;20265;-58
2022/01/15 09:04:46;;;;;;;30.13;14.60;;;2.20;50.20;;;;;;6290951;28;20245;-56
2022/01/15 09:07:49;;;;;;;25.60;14.10;;;2.40;50.50;;;;;;6290059;28;20232;-58
2022/01/15 09:10:52;;;;;;;31.33;13.80;;;2.40;50.50;;;;;;6293779;28;20808;-56
2022/01/15 09:13:56;;;;;;;24.47;13.37;;;2.50;49.20;;;;;;6299844;28;20693;-56
2022/01/15 09:16:59;;;;;;;27.23;14.33;;;2.60;48.70;;;;;;6293630;28;20728;-56
2022/01/15 09:20:04;;;;;;;37.10;14.87;;;2.50;49.10;;;;;;6298582;28;20304;-56
2022/01/15 09:23:07;;;;;;;35.67;15.50;;;2.90;48.80;;;;;;6273485;28;20248;-57
2022/01/15 09:26:19;;;;;;;30.80;15.03;;;2.80;47.50;;;;;;6291703;28;20713;-55
2022/01/15 09:32:45;;;;;;;30.17;14.33;;;2.80;48.10;;;;;;6284678;28;20424;-52
2022/01/15 09:35:48;;;;;;;24.40;12.83;;;2.70;47.90;;;;;;6306815;28;20237;-56
2022/01/15 09:38:51;;;;;;;38.73;13.13;;;2.80;47.50;;;;;;6299953;28;20692;-57
2022/01/15 09:41:54;;;;;;;23.17;12.67;;;2.70;46.30;;;;;;6303700;28;20331;-57
2022/01/15 09:44:59;;;;;;;25.87;12.87;;;3.10;47.10;;;;;;6292338;28;20237;-56
2022/01/15 09:48:05;;;;;;;30.90;13.40;;;2.80;45.90;;;;;;6286641;28;20250;-56
2022/01/15 09:51:08;;;;;;;30.40;12.47;;;2.90;46.40;;;;;;6299947;28;20247;-56
2022/01/15 09:54:11;;;;;;;33.23;12.73;;;3.00;47.10;;;;;;6295292;28;20266;-56
2022/01/15 09:57:14;;;;;;;35.73;12.73;;;3.10;46.50;;;;;;6294379;28;20233;-56
2022/01/15 10:00:20;;;;;;;36.90;14.70;;;3.20;47.50;;;;;;6302856;28;20747;-57
2022/01/15 10:03:23;;;;;;;23.90;12.73;;;2.90;45.10;;;;;;6301524;28;20315;-57
2022/01/15 10:06:26;;;;;;;30.53;13.17;;;3.20;45.20;;;;;;6289615;28;20318;-57
2022/01/15 10:09:28;;;;;;;25.17;13.60;;;3.10;44.40;;;;;;6295454;28;20320;-57
2022/01/15 10:12:33;;;;;;;28.23;14.67;;;3.10;44.10;;;;;;6296527;28;20471;-57
2022/01/15 10:15:37;;;;;;;30.33;12.87;;;2.80;45.10;;;;;;6295307;28;20320;-57
2022/01/15 10:18:44;;;;;;;37.33;12.77;;;2.80;44.40;;;;;;6300046;28;20613;-57
2022/01/15 10:22:05;;;;;;;26.67;12.63;;;2.90;45.40;;;;;;6289817;28;20585;-56
2022/01/15 10:25:11;;;;;;;25.00;14.17;;;2.90;46.30;;;;;;6284717;28;20721;-56
2022/01/15 10:28:14;;;;;;;35.90;13.67;;;3.10;44.70;;;;;;6297314;28;20255;-56
2022/01/15 10:31:22;;;;;;;30.87;13.70;;;2.80;45.80;;;;;;6297736;28;21513;-56
2022/01/15 10:34:28;;;;;;;27.63;12.60;;;2.90;46.80;;;;;;6298293;28;20267;-58
2022/01/15 10:37:36;;;;;;;25.00;12.97;;;3.00;48.10;;;;;;6283987;28;20228;-57
2022/01/15 10:40:41;;;;;;;33.20;14.20;;;3.10;46.70;;;;;;6293210;28;20264;-56
2022/01/15 10:43:44;;;;;;;28.77;14.20;;;2.90;45.70;;;;;;6288396;28;20241;-58
2022/01/15 10:46:48;;;;;;;27.17;14.27;;;2.80;45.50;;;;;;6288408;28;20490;-56
2022/01/15 10:49:51;;;;;;;27.33;13.80;;;2.80;46.50;;;;;;6295196;28;20232;-58
2022/01/15 10:52:55;;;;;;;29.60;14.17;;;3.00;45.60;;;;;;6286135;28;20279;-57
2022/01/15 10:55:58;;;;;;;32.63;14.97;;;3.20;44.00;;;;;;6298139;28;20228;-57
2022/01/15 10:59:10;;;;;;;28.77;14.23;;;2.90;43.50;;;;;;6287338;28;20495;-56
2022/01/15 11:02:20;;;;;;;27.67;15.23;;;2.90;45.40;;;;;;6293406;28;20762;-57
2022/01/15 11:05:35;;;;;;;30.37;13.83;;;2.90;42.20;;;;;;6298544;28;20258;-56
2022/01/15 11:08:39;;;;;;;35.33;13.63;;;2.90;45.00;;;;;;6288651;28;20726;-56
2022/01/15 11:11:55;;;;;;;27.77;13.47;;;3.20;42.20;;;;;;6295608;28;20281;-56
2022/01/15 11:14:57;;;;;;;25.43;14.37;;;3.10;40.80;;;;;;6294525;28;20387;-55
2022/01/15 11:18:07;;;;;;;34.87;14.47;;;3.20;41.20;;;;;;6291086;28;20233;-57
2022/01/15 11:21:13;;;;;;;29.33;16.53;;;3.20;40.50;;;;;;6291377;28;20339;-57
2022/01/15 11:24:17;;;;;;;37.27;16.83;;;3.10;40.90;;;;;;6288210;28;20313;-56
2022/01/15 11:27:19;;;;;;;30.83;17.00;;;3.20;40.40;;;;;;6286908;28;20232;-57
2022/01/15 11:30:23;;;;;;;37.20;16.27;;;3.00;42.20;;;;;;6292790;28;20229;-57
2022/01/15 11:33:30;;;;;;;33.53;16.30;;;2.90;43.30;;;;;;6291754;28;20742;-56
2022/01/15 11:36:36;;;;;;;37.70;18.13;;;3.10;44.10;;;;;;6290005;28;20316;-57
2022/01/15 11:39:39;;;;;;;32.10;16.77;;;3.10;45.10;;;;;;6294003;28;20263;-57
2022/01/15 11:42:41;;;;;;;40.03;17.43;;;3.00;44.70;;;;;;6287856;28;20348;-56
2022/01/15 11:45:44;;;;;;;26.90;16.03;;;3.00;43.50;;;;;;6289660;28;20312;-56
2022/01/15 11:48:48;;;;;;;39.70;15.70;;;3.00;43.50;;;;;;6285871;28;20302;-56
2022/01/15 11:51:51;;;;;;;29.87;15.30;;;2.80;44.70;;;;;;6256703;28;20250;-57
2022/01/15 11:55:16;;;;;;;34.00;16.10;;;2.90;45.30;;;;;;6291312;28;20256;-56
2022/01/15 11:58:21;;;;;;;31.97;16.33;;;2.70;45.10;;;;;;6288030;28;20629;-57
2022/01/15 12:01:43;;;;;;;30.27;16.67;;;3.20;45.40;;;;;;6284184;28;20678;-57
2022/01/15 12:04:47;;;;;;;33.57;17.03;;;2.90;44.90;;;;;;6290366;28;20231;-58
2022/01/15 12:08:23;;;;;;;34.93;16.73;;;2.90;43.60;;;;;;6288864;28;20237;-56
2022/01/15 12:11:32;;;;;;;30.90;15.67;;;2.90;46.60;;;;;;6287248;28;20304;-58
2022/01/15 12:14:47;;;;;;;34.67;16.47;;;2.90;47.10;;;;;;6287237;28;20259;-57
2022/01/15 12:17:51;;;;;;;34.23;15.90;;;2.70;45.80;;;;;;6286581;28;20472;-56
2022/01/15 12:20:55;;;;;;;34.63;15.70;;;2.80;46.40;;;;;;6285990;28;20666;-57
2022/01/15 12:24:18;;;;;;;31.07;15.77;;;3.00;45.80;;;;;;6290737;28;20350;-57
2022/01/15 12:27:26;;;;;;;28.90;14.53;;;3.10;45.30;;;;;;6296403;28;20734;-56
2022/01/15 12:30:30;;;;;;;28.73;14.27;;;3.10;47.00;;;;;;6296550;28;20374;-57
2022/01/15 12:33:35;;;;;;;32.57;15.90;;;3.50;45.10;;;;;;6299980;28;20233;-58
2022/01/15 12:36:48;;;;;;;29.57;14.03;;;3.30;41.20;;;;;;6292885;28;20373;-57
2022/01/15 12:39:51;;;;;;;33.67;16.00;;;3.50;41.60;;;;;;6299440;28;20721;-58
2022/01/15 12:42:57;;;;;;;30.37;15.47;;;3.50;42.80;;;;;;6291370;28;20272;-58
2022/01/15 12:46:02;;;;;;;30.87;16.33;;;3.40;43.50;;;;;;6300848;28;20377;-56
2022/01/15 12:49:08;;;;;;;31.53;14.07;;;3.20;41.10;;;;;;6302290;28;20232;-57
2022/01/15 12:52:16;;;;;;;31.00;15.30;;;3.30;38.40;;;;;;6295652;28;20229;-57
2022/01/15 12:55:18;;;;;;;25.67;13.60;;;3.60;40.80;;;;;;6290655;28;20239;-58
2022/01/15 12:58:23;;;;;;;26.80;13.63;;;3.50;41.60;;;;;;6292636;28;20761;-57
2022/01/15 13:01:27;;;;;;;26.87;13.53;;;3.50;41.00;;;;;;6292771;28;20237;-55
2022/01/15 13:04:30;;;;;;;24.30;12.70;;;3.30;37.70;;;;;;6294324;28;20237;-57
2022/01/15 13:07:55;;;;;;;27.40;12.53;;;3.30;37.20;;;;;;6305117;28;20224;-56
2022/01/15 13:11:03;;;;;;;30.93;13.53;;;3.40;39.50;;;;;;6306307;28;20256;-56
2022/01/15 13:14:07;;;;;;;15.60;11.50;;;3.00;39.90;;;;;;6309386;28;20253;-56
2022/01/15 13:17:21;;;;;;;23.47;12.40;;;3.00;41.10;;;;;;6301331;28;20888;-55
2022/01/15 13:20:30;;;;;;;28.83;12.30;;;3.10;41.50;;;;;;6299595;28;20232;-57
2022/01/15 13:23:39;;;;;;;25.57;12.83;;;3.30;42.50;;;;;;6289333;28;20312;-56
2022/01/15 13:26:45;;;;;;;28.20;13.07;;;3.10;39.90;;;;;;6291466;28;20249;-55
2022/01/15 13:29:48;;;;;;;27.73;13.00;;;3.10;40.60;;;;;;6290907;28;20415;-58
2022/01/15 13:32:53;;;;;;;26.30;13.33;;;3.20;41.10;;;;;;6291377;28;20624;-56
2022/01/15 13:35:56;;;;;;;30.20;14.27;;;3.30;40.90;;;;;;6289370;28;20293;-55
2022/01/15 13:39:00;;;;;;;27.77;13.73;;;2.60;40.00;;;;;;6289386;28;20644;-56
2022/01/15 13:42:04;;;;;;;31.97;13.67;;;3.00;42.30;;;;;;6292159;28;20795;-55
2022/01/15 13:45:07;;;;;;;29.57;14.10;;;3.10;42.90;;;;;;6289803;28;20618;-56
2022/01/15 13:48:16;;;;;;;26.83;13.43;;;3.00;42.80;;;;;;6288766;28;20561;-56
2022/01/15 13:58:12;;;;;;;20.43;13.43;;;3.30;42.70;;;;;;6285316;27;20592;-57
2022/01/15 14:01:20;;;;;;;30.13;14.60;;;3.20;43.10;;;;;;6294941;28;20252;-55
2022/01/15 14:04:27;;;;;;;33.10;14.87;;;3.20;40.20;;;;;;6299800;28;20268;-56
2022/01/15 14:07:29;;;;;;;30.07;13.67;;;3.50;40.60;;;;;;6301723;28;20956;-56
2022/01/15 14:10:32;;;;;;;34.57;12.80;;;3.50;41.20;;;;;;6298162;28;20233;-55
2022/01/15 14:13:36;;;;;;;34.83;13.90;;;3.50;40.60;;;;;;6299107;28;20761;-56
2022/01/15 14:16:42;;;;;;;26.23;13.10;;;3.60;41.30;;;;;;6298540;28;20229;-57
2022/01/15 14:20:05;;;;;;;23.70;11.77;;;3.30;39.00;;;;;;6300320;28;20631;-55
2022/01/15 14:23:09;;;;;;;31.23;12.60;;;3.40;41.30;;;;;;6297900;28;20314;-55
2022/01/15 14:26:17;;;;;;;29.17;11.83;;;3.40;40.70;;;;;;6301795;28;20758;-55
2022/01/15 14:29:21;;;;;;;30.33;11.33;;;3.40;41.70;;;;;;6295197;28;20233;-55
2022/01/15 14:32:24;;;;;;;24.93;12.13;;;3.70;40.90;;;;;;6296134;28;20287;-56
2022/01/15 14:35:27;;;;;;;25.37;11.77;;;3.30;40.70;;;;;;6296790;28;20259;-55
2022/01/15 14:38:30;;;;;;;29.07;12.00;;;3.50;41.40;;;;;;6295337;28;20854;-55
2022/01/15 14:41:34;;;;;;;24.87;11.53;;;3.50;40.60;;;;;;6296850;28;20225;-56
2022/01/15 14:44:38;;;;;;;22.63;11.10;;;3.50;40.70;;;;;;6296972;28;20302;-55
2022/01/15 14:47:41;;;;;;;23.97;12.10;;;3.60;40.50;;;;;;6299726;28;20584;-56
2022/01/15 14:50:45;;;;;;;32.20;12.30;;;3.70;41.50;;;;;;6295128;28;20241;-55
2022/01/15 14:53:48;;;;;;;20.43;10.83;;;3.60;40.80;;;;;;6297357;28;20294;-56
2022/01/15 14:56:51;;;;;;;24.03;11.30;;;3.90;41.70;;;;;;6297911;28;20239;-56
2022/01/15 14:59:55;;;;;;;27.97;12.00;;;3.60;40.40;;;;;;6295182;28;20701;-55
2022/01/15 15:02:57;;;;;;;19.37;9.33;;;3.80;40.50;;;;;;6298836;28;20278;-56
2022/01/15 15:06:01;;;;;;;19.73;10.63;;;3.90;40.90;;;;;;6295749;28;20749;-55
2022/01/15 15:09:04;;;;;;;23.93;11.93;;;3.90;40.70;;;;;;6282794;28;20340;-56
2022/01/15 15:12:10;;;;;;;25.13;11.10;;;3.70;40.20;;;;;;6277635;28;20851;-55
2022/01/15 15:15:14;;;;;;;17.07;9.87;;;3.70;40.70;;;;;;6270400;28;20475;-57
2022/01/15 15:18:17;;;;;;;26.30;10.87;;;3.80;41.00;;;;;;6275392;28;20314;-56
2022/01/15 15:21:20;;;;;;;18.87;10.50;;;3.70;40.90;;;;;;6282578;28;20255;-56
2022/01/15 15:24:23;;;;;;;23.60;10.03;;;3.60;40.80;;;;;;6276316;28;20237;-57
2022/01/15 15:27:25;;;;;;;27.20;10.37;;;3.90;39.10;;;;;;6279063;28;20252;-57
2022/01/15 15:30:30;;;;;;;21.80;10.10;;;3.90;39.20;;;;;;6278815;28;20694;-57
2022/01/15 15:33:32;;;;;;;17.83;10.20;;;4.00;40.30;;;;;;6279597;28;20227;-56
2022/01/15 15:36:36;;;;;;;18.50;9.87;;;3.80;40.00;;;;;;6280653;28;20690;-56
2022/01/15 15:39:39;;;;;;;17.07;10.30;;;4.00;40.30;;;;;;6278944;28;20233;-57
2022/01/15 15:42:42;;;;;;;24.60;9.80;;;3.90;40.80;;;;;;6279098;28;20237;-57
2022/01/15 15:45:47;;;;;;;26.27;10.17;;;4.00;40.80;;;;;;6278895;28;20324;-57
2022/01/15 15:48:49;;;;;;;20.17;8.93;;;4.00;41.00;;;;;;6277992;28;20228;-56
2022/01/15 15:51:52;;;;;;;25.60;8.50;;;3.80;40.10;;;;;;6278200;28;20733;-64
2022/01/15 15:54:56;;;;;;;18.47;7.77;;;3.90;39.10;;;;;;6279627;28;20231;-56
2022/01/15 15:57:59;;;;;;;19.10;7.87;;;4.00;36.30;;;;;;6277810;28;20954;-56
2022/01/15 16:01:03;;;;;;;22.00;8.67;;;4.10;34.60;;;;;;6275971;28;20237;-57
2022/01/15 16:04:06;;;;;;;15.97;7.30;;;3.80;34.20;;;;;;6277871;28;20340;-56
2022/01/15 16:07:09;;;;;;;16.70;7.37;;;4.00;31.70;;;;;;6282190;28;20244;-57
2022/01/15 16:10:14;;;;;;;17.57;7.40;;;4.30;31.90;;;;;;6278444;28;20558;-56
2022/01/15 16:13:17;;;;;;;16.37;7.20;;;4.10;28.60;;;;;;6280316;28;20305;-57